Time;durP1;ratioP1;P1;durP2;ratioP2;P2;SDS_P1;SDS_P2;PMS_P1;PMS_P2;Temp;Humidity;BMP_temperature;BMP_pressure;BME280_temperature;BME280_humidity;BME280_pressure;Samples;Min_cycle;Max_cycle;Signal;HPM_P1;HPM_P2
2023/04/12 00:00:59;;;;;;;;;;;;;;;9.54;nan;99980.69;5032753;28;19917;-84
2023/04/12 00:03:25;;;;;;;;;;;;;;;9.51;nan;99977.53;5035021;28;19924;-83
2023/04/12 00:05:53;;;;;;;;;;;;;;;9.41;nan;99972.38;5029883;28;19924;-83
2023/04/12 00:08:23;;;;;;;;;;;;;;;9.34;nan;99971.34;5030799;28;20558;-82
2023/04/12 00:10:48;;;;;;;;;;;;;;;9.29;nan;99965.72;5049969;28;19925;-82
2023/04/12 00:13:14;;;;;;;;;;;;;;;9.42;nan;99966.13;5033697;28;19921;-83
2023/04/12 00:15:39;;;;;;;;;;;;;;;9.54;nan;99966.69;5026758;28;20270;-83
2023/04/12 00:18:05;;;;;;;;;;;;;;;9.65;nan;99974.28;5036251;28;19916;-82
2023/04/12 00:20:30;;;;;;;;;;;;;;;9.68;nan;99973.19;5036110;28;19917;-82
2023/04/12 00:22:56;;;;;;;;;;;;;;;9.72;nan;99967.38;5032142;28;20426;-83
2023/04/12 00:25:21;;;;;;;;;;;;;;;9.72;nan;99969.22;5039041;28;19924;-82
2023/04/12 00:27:46;;;;;;;;;;;;;;;9.67;nan;99960.94;5038515;28;19924;-82
2023/04/12 00:30:12;;;;;;;;;;;;;;;9.47;nan;99953.28;5031679;28;20003;-83
2023/04/12 00:32:37;;;;;;;;;;;;;;;9.32;nan;99952.25;5036006;28;19917;-83
2023/04/12 00:35:03;;;;;;;;;;;;;;;9.19;nan;99949.19;5037833;28;19928;-82
2023/04/12 00:37:28;;;;;;;;;;;;;;;9.03;nan;99936.72;5030582;28;19917;-83
2023/04/12 00:39:53;;;;;;;;;;;;;;;8.93;nan;99940.31;5026994;28;20473;-81
2023/04/12 00:42:18;;;;;;;;;;;;;;;8.91;nan;99934.38;5029150;28;20733;-82
2023/04/12 00:44:43;;;;;;;;;;;;;;;8.84;nan;99919.31;5033649;28;19955;-83
2023/04/12 00:47:09;;;;;;;;;;;;;;;8.78;nan;99933.13;5033725;28;19917;-81
2023/04/12 00:49:34;;;;;;;;;;;;;;;8.77;nan;99932.31;5031731;28;19913;-82
2023/04/12 00:52:03;;;;;;;;;;;;;;;8.76;nan;99929.81;5030052;28;19921;-82
2023/04/12 00:54:29;;;;;;;;;;;;;;;8.77;nan;99929.69;5032936;28;19916;-82
2023/04/12 00:56:56;;;;;;;;;;;;;;;8.77;nan;99929.69;5027524;28;19917;-82
2023/04/12 00:59:21;;;;;;;;;;;;;;;8.71;nan;99930.28;5033086;28;20150;-81
2023/04/12 01:01:46;;;;;;;;;;;;;;;8.66;nan;99936.00;5023461;28;19921;-82
2023/04/12 01:04:12;;;;;;;;;;;;;;;8.61;nan;99933.03;5023136;28;20000;-82
2023/04/12 01:06:49;;;;;;;;;;;;;;;8.57;nan;99926.38;5031720;28;19917;-81
2023/04/12 01:09:20;;;;;;;;;;;;;;;8.58;nan;99930.69;5031643;28;19924;-80
2023/04/12 01:11:57;;;;;;;;;;;;;;;8.48;nan;99924.66;5039236;28;19921;-80
2023/04/12 01:14:34;;;;;;;;;;;;;;;8.42;nan;99923.50;5023992;28;20056;-80
2023/04/12 01:17:01;;;;;;;;;;;;;;;8.38;nan;99910.75;5026299;28;19914;-80
2023/04/12 01:19:45;;;;;;;;;;;;;;;8.35;nan;99911.88;5032882;28;20008;-82
2023/04/12 01:22:29;;;;;;;;;;;;;;;8.35;nan;99913.69;5051743;28;19935;-80
2023/04/12 01:25:22;;;;;;;;;;;;;;;8.30;nan;99906.25;5025699;28;20443;-82
2023/04/12 01:27:49;;;;;;;;;;;;;;;8.26;nan;99907.50;5042821;28;20286;-82
2023/04/12 01:30:16;;;;;;;;;;;;;;;8.24;nan;99898.94;5034777;28;19917;-81
2023/04/12 01:32:42;;;;;;;;;;;;;;;8.24;nan;99893.66;5041956;28;20011;-81
2023/04/12 01:35:09;;;;;;;;;;;;;;;8.19;nan;99888.03;5034733;28;19917;-81
2023/04/12 01:37:35;;;;;;;;;;;;;;;8.19;nan;99894.13;5034278;28;19957;-82
2023/04/12 01:40:00;;;;;;;;;;;;;;;8.15;nan;99887.53;5027492;28;20290;-81
2023/04/12 01:42:25;;;;;;;;;;;;;;;8.12;nan;99887.81;5033883;28;19921;-82
2023/04/12 01:44:50;;;;;;;;;;;;;;;8.12;nan;99879.09;5040346;28;19939;-81
2023/04/12 01:47:16;;;;;;;;;;;;;;;8.09;nan;99878.41;5027368;28;20417;-82
2023/04/12 01:49:48;;;;;;;;;;;;;;;8.08;nan;99871.50;5028510;28;20008;-82
2023/04/12 01:52:15;;;;;;;;;;;;;;;8.06;nan;99862.91;5031796;28;20337;-83
2023/04/12 01:54:42;;;;;;;;;;;;;;;8.06;nan;99851.56;5030143;28;19913;-83
2023/04/12 01:57:08;;;;;;;;;;;;;;;7.98;nan;99849.66;5034405;28;20437;-81
2023/04/12 01:59:38;;;;;;;;;;;;;;;7.93;nan;99846.66;5026416;28;19918;-84
2023/04/12 02:02:03;;;;;;;;;;;;;;;7.92;nan;99841.56;5025851;28;19972;-84
2023/04/12 02:04:29;;;;;;;;;;;;;;;7.91;nan;99839.91;5032045;28;19917;-83
2023/04/12 02:06:54;;;;;;;;;;;;;;;7.91;nan;99832.81;5032397;28;20601;-83
2023/04/12 02:09:21;;;;;;;;;;;;;;;7.92;nan;99825.78;5042600;28;20428;-83
2023/04/12 02:11:49;;;;;;;;;;;;;;;7.91;nan;99816.22;5032927;28;20391;-81
2023/04/12 02:14:15;;;;;;;;;;;;;;;7.90;nan;99814.56;5014644;28;19924;-81
2023/04/12 02:16:44;;;;;;;;;;;;;;;7.90;nan;99809.31;5020299;28;19917;-82
2023/04/12 02:19:09;;;;;;;;;;;;;;;7.89;nan;99800.59;5034278;28;19920;-83
2023/04/12 02:21:38;;;;;;;;;;;;;;;7.89;nan;99811.13;5027645;28;19913;-82
2023/04/12 02:24:03;;;;;;;;;;;;;;;7.86;nan;99806.97;5032179;28;19992;-83
2023/04/12 02:26:28;;;;;;;;;;;;;;;7.83;nan;99804.63;5041077;28;19956;-82
2023/04/12 02:28:54;;;;;;;;;;;;;;;7.79;nan;99805.09;5032922;28;19919;-84
2023/04/12 02:31:19;;;;;;;;;;;;;;;7.81;nan;99800.50;5032793;28;19944;-82
2023/04/12 02:33:44;;;;;;;;;;;;;;;7.77;nan;99797.38;5018689;28;20016;-82
2023/04/12 02:36:10;;;;;;;;;;;;;;;7.73;nan;99780.22;5029407;28;19950;-82
2023/04/12 02:38:35;;;;;;;;;;;;;;;7.71;nan;99779.53;5020610;28;19920;-82
2023/04/12 02:41:00;;;;;;;;;;;;;;;7.70;nan;99771.78;5033230;28;19917;-82
2023/04/12 02:43:25;;;;;;;;;;;;;;;7.68;nan;99764.06;5031810;28;19934;-82
2023/04/12 02:45:51;;;;;;;;;;;;;;;7.69;nan;99765.69;5035299;28;19913;-82
2023/04/12 02:48:16;;;;;;;;;;;;;;;7.67;nan;99762.38;5026191;28;19921;-81
2023/04/12 02:50:41;;;;;;;;;;;;;;;7.66;nan;99756.31;5036128;28;19944;-81
2023/04/12 02:53:06;;;;;;;;;;;;;;;7.68;nan;99744.81;5031931;28;20024;-81
2023/04/12 02:55:31;;;;;;;;;;;;;;;7.67;nan;99746.59;5026624;28;19917;-81
2023/04/12 02:57:57;;;;;;;;;;;;;;;7.67;nan;99736.06;5035783;28;20008;-82
2023/04/12 03:00:22;;;;;;;;;;;;;;;7.69;nan;99730.66;5035563;28;19971;-83
2023/04/12 03:02:51;;;;;;;;;;;;;;;7.64;nan;99717.97;5029242;28;20110;-83
2023/04/12 03:05:16;;;;;;;;;;;;;;;7.66;nan;99724.72;5022867;28;19917;-83
2023/04/12 03:07:42;;;;;;;;;;;;;;;7.62;nan;99720.75;5029502;28;19982;-83
2023/04/12 03:10:10;;;;;;;;;;;;;;;7.63;nan;99716.31;5035696;28;19920;-83
2023/04/12 03:12:35;;;;;;;;;;;;;;;7.63;nan;99700.53;5040336;28;19952;-83
2023/04/12 03:15:00;;;;;;;;;;;;;;;7.62;nan;99698.88;5031720;28;20586;-82
2023/04/12 03:17:25;;;;;;;;;;;;;;;7.63;nan;99697.91;5032844;28;20485;-83
2023/04/12 03:19:51;;;;;;;;;;;;;;;7.61;nan;99695.41;5032947;28;20394;-82
2023/04/12 03:22:16;;;;;;;;;;;;;;;7.63;nan;99701.38;5032905;28;20004;-83
2023/04/12 03:24:43;;;;;;;;;;;;;;;7.62;nan;99704.13;5034238;28;19921;-82
2023/04/12 03:27:08;;;;;;;;;;;;;;;7.62;nan;99688.34;5041837;28;19940;-81
2023/04/12 03:29:34;;;;;;;;;;;;;;;7.65;nan;99686.25;5045692;28;19952;-82
2023/04/12 03:31:59;;;;;;;;;;;;;;;7.66;nan;99690.53;5035855;28;19917;-82
2023/04/12 03:34:26;;;;;;;;;;;;;;;7.73;nan;99682.84;5029510;28;19921;-83
2023/04/12 03:36:51;;;;;;;;;;;;;;;7.71;nan;99676.91;5026909;28;19912;-82
2023/04/12 03:39:16;;;;;;;;;;;;;;;7.72;nan;99662.75;5031852;28;20385;-83
2023/04/12 03:41:42;;;;;;;;;;;;;;;7.73;nan;99653.06;5030539;28;19917;-82
2023/04/12 03:44:07;;;;;;;;;;;;;;;7.79;nan;99652.44;5040490;28;19920;-82
2023/04/12 03:46:32;;;;;;;;;;;;;;;7.71;nan;99647.13;5032658;28;19913;-81
2023/04/12 03:48:58;;;;;;;;;;;;;;;7.77;nan;99642.09;5034438;28;19928;-81
2023/04/12 03:51:25;;;;;;;;;;;;;;;7.68;nan;99639.56;5028170;28;19925;-83
2023/04/12 03:53:51;;;;;;;;;;;;;;;7.66;nan;99624.75;5030278;28;19999;-82
2023/04/12 03:56:16;;;;;;;;;;;;;;;7.66;nan;99627.38;5025844;28;20382;-81
2023/04/12 03:58:41;;;;;;;;;;;;;;;7.69;nan;99622.78;5030645;28;19944;-82
2023/04/12 04:01:06;;;;;;;;;;;;;;;7.67;nan;99617.66;5040537;28;19978;-82
2023/04/12 04:03:33;;;;;;;;;;;;;;;7.66;nan;99610.75;5026508;28;20291;-83
2023/04/12 04:05:59;;;;;;;;;;;;;;;7.61;nan;99607.78;5026343;28;19944;-83
2023/04/12 04:08:24;;;;;;;;;;;;;;;7.62;nan;99602.34;5019675;28;20418;-83
2023/04/12 04:10:49;;;;;;;;;;;;;;;7.61;nan;99599.88;5020513;28;20011;-82
2023/04/12 04:13:14;;;;;;;;;;;;;;;7.60;nan;99593.81;5029169;28;20008;-82
2023/04/12 04:15:40;;;;;;;;;;;;;;;7.60;nan;99585.91;5021197;28;20379;-84
2023/04/12 04:18:05;;;;;;;;;;;;;;;7.57;nan;99575.69;5022399;28;19918;-83
2023/04/12 04:20:30;;;;;;;;;;;;;;;7.54;nan;99573.38;5023072;28;19913;-82
2023/04/12 04:22:56;;;;;;;;;;;;;;;7.55;nan;99566.28;5029522;28;19944;-83
2023/04/12 04:25:28;;;;;;;;;;;;;;;7.52;nan;99559.53;5014486;28;19913;-82
2023/04/12 04:27:53;;;;;;;;;;;;;;;7.47;nan;99547.84;5021711;28;20477;-84
2023/04/12 04:30:21;;;;;;;;;;;;;;;7.47;nan;99542.59;5032293;28;19917;-83
2023/04/12 04:32:47;;;;;;;;;;;;;;;7.50;nan;99542.25;5025604;28;19928;-83
2023/04/12 04:35:14;;;;;;;;;;;;;;;7.48;nan;99541.59;5030694;28;20282;-82
2023/04/12 04:37:39;;;;;;;;;;;;;;;7.42;nan;99530.72;5012144;28;19913;-82
2023/04/12 04:40:08;;;;;;;;;;;;;;;7.42;nan;99532.53;5001209;28;19918;-84
2023/04/12 04:42:33;;;;;;;;;;;;;;;7.44;nan;99523.50;5016660;28;19913;-83
2023/04/12 04:45:03;;;;;;;;;;;;;;;7.41;nan;99522.97;5032584;28;19952;-82
2023/04/12 04:47:29;;;;;;;;;;;;;;;7.41;nan;99508.03;5027791;28;19917;-82
2023/04/12 04:49:56;;;;;;;;;;;;;;;7.38;nan;99512.78;5040220;28;20381;-83
2023/04/12 04:52:21;;;;;;;;;;;;;;;7.36;nan;99512.91;5030413;28;20019;-86
2023/04/12 04:54:47;;;;;;;;;;;;;;;7.37;nan;99505.88;5033903;28;19952;-82
2023/04/12 04:57:13;;;;;;;;;;;;;;;7.38;nan;99503.06;5025073;28;19948;-83
2023/04/12 04:59:38;;;;;;;;;;;;;;;7.38;nan;99500.44;5016880;28;19917;-81
2023/04/12 05:02:04;;;;;;;;;;;;;;;7.40;nan;99492.41;5023359;28;20267;-82
2023/04/12 05:04:29;;;;;;;;;;;;;;;7.41;nan;99494.91;5031938;28;20017;-86
2023/04/12 05:06:54;;;;;;;;;;;;;;;7.41;nan;99489.63;5023408;28;19924;-83
2023/04/12 05:09:19;;;;;;;;;;;;;;;7.40;nan;99485.34;5030903;28;19913;-84
2023/04/12 05:11:45;;;;;;;;;;;;;;;7.39;nan;99483.69;5027513;28;20059;-84
2023/04/12 05:14:10;;;;;;;;;;;;;;;7.41;nan;99491.41;5032117;28;19919;-84
2023/04/12 05:16:36;;;;;;;;;;;;;;;7.44;nan;99484.03;5024391;28;19917;-83
2023/04/12 05:19:01;;;;;;;;;;;;;;;7.46;nan;99481.28;5025964;28;19947;-84
2023/04/12 05:21:27;;;;;;;;;;;;;;;7.49;nan;99488.03;5032206;28;19967;-85
2023/04/12 05:23:52;;;;;;;;;;;;;;;7.47;nan;99468.94;5030780;28;19917;-84
2023/04/12 05:26:17;;;;;;;;;;;;;;;7.52;nan;99464.03;5034406;28;19917;-85
2023/04/12 05:28:43;;;;;;;;;;;;;;;7.54;nan;99462.88;5033372;28;19920;-84
2023/04/12 05:31:09;;;;;;;;;;;;;;;7.50;nan;99455.47;5035625;28;19913;-84
2023/04/12 05:33:35;;;;;;;;;;;;;;;7.50;nan;99456.28;5025072;28;19946;-84
2023/04/12 05:36:00;;;;;;;;;;;;;;;7.53;nan;99461.25;5034337;28;19920;-85
2023/04/12 05:38:26;;;;;;;;;;;;;;;7.55;nan;99445.28;5030886;28;19921;-84
2023/04/12 05:40:51;;;;;;;;;;;;;;;7.60;nan;99440.38;5031770;28;19921;-83
2023/04/12 05:43:17;;;;;;;;;;;;;;;7.60;nan;99443.84;5024489;28;19959;-84
2023/04/12 05:45:42;;;;;;;;;;;;;;;7.62;nan;99441.03;5028403;28;19913;-86
2023/04/12 05:48:07;;;;;;;;;;;;;;;7.62;nan;99435.78;5019844;28;20305;-85
2023/04/12 05:50:32;;;;;;;;;;;;;;;7.66;nan;99430.03;5029549;28;19921;-84
2023/04/12 05:52:59;;;;;;;;;;;;;;;7.71;nan;99428.75;5028164;28;20426;-83
2023/04/12 05:55:24;;;;;;;;;;;;;;;7.74;nan;99408.19;5027137;28;19972;-85
2023/04/12 05:57:50;;;;;;;;;;;;;;;7.75;nan;99404.56;5027522;28;19991;-83
2023/04/12 06:00:16;;;;;;;;;;;;;;;7.75;nan;99396.69;5033078;28;19928;-84
2023/04/12 06:02:42;;;;;;;;;;;;;;;7.77;nan;99394.72;5030544;28;20375;-84
2023/04/12 06:05:08;;;;;;;;;;;;;;;7.82;nan;99379.25;5029187;28;19924;-85
2023/04/12 06:07:33;;;;;;;;;;;;;;;7.81;nan;99374.16;5034354;28;19921;-82
2023/04/12 06:09:58;;;;;;;;;;;;;;;7.80;nan;99370.69;5035202;28;19913;-82
2023/04/12 06:12:23;;;;;;;;;;;;;;;7.82;nan;99355.56;5030674;28;19925;-82
2023/04/12 06:14:49;;;;;;;;;;;;;;;7.85;nan;99357.88;5033387;28;20347;-84
2023/04/12 06:17:14;;;;;;;;;;;;;;;7.86;nan;99354.28;5032305;28;19995;-84
2023/04/12 06:19:39;;;;;;;;;;;;;;;7.90;nan;99343.41;5037448;28;19917;-84
2023/04/12 06:22:05;;;;;;;;;;;;;;;7.91;nan;99335.31;5036341;28;19959;-83
2023/04/12 06:24:30;;;;;;;;;;;;;;;7.92;nan;99331.72;5037454;28;20286;-83
2023/04/12 06:26:55;;;;;;;;;;;;;;;7.92;nan;99334.34;5037678;28;19916;-84
2023/04/12 06:29:21;;;;;;;;;;;;;;;7.94;nan;99331.56;5037010;28;19917;-83
2023/04/12 06:31:47;;;;;;;;;;;;;;;7.93;nan;99324.66;5032724;28;19921;-84
2023/04/12 06:34:12;;;;;;;;;;;;;;;7.97;nan;99337.31;5037543;28;19917;-82
2023/04/12 06:36:40;;;;;;;;;;;;;;;7.98;nan;99333.69;5036276;28;19947;-83
2023/04/12 06:39:05;;;;;;;;;;;;;;;8.05;nan;99331.22;5040439;28;19939;-82
2023/04/12 06:41:30;;;;;;;;;;;;;;;8.04;nan;99327.78;5030699;28;20007;-83
2023/04/12 06:43:55;;;;;;;;;;;;;;;8.08;nan;99323.03;5029103;28;19913;-84
2023/04/12 06:46:27;;;;;;;;;;;;;;;8.10;nan;99321.00;5034316;28;19981;-84
2023/04/12 06:48:52;;;;;;;;;;;;;;;8.15;nan;99324.00;5036200;28;20279;-83
2023/04/12 06:51:17;;;;;;;;;;;;;;;8.16;nan;99314.28;5034148;28;19948;-85
2023/04/12 06:53:43;;;;;;;;;;;;;;;8.16;nan;99306.38;5024116;28;20156;-84
2023/04/12 06:56:08;;;;;;;;;;;;;;;8.19;nan;99284.97;5036519;28;19919;-83
2023/04/12 06:58:33;;;;;;;;;;;;;;;8.27;nan;99285.81;5035868;28;19917;-83
2023/04/12 07:01:08;;;;;;;;;;;;;;;8.34;nan;99291.19;5029730;28;20352;-83
2023/04/12 07:03:34;;;;;;;;;;;;;;;8.39;nan;99285.44;5032175;28;19913;-84
2023/04/12 07:06:01;;;;;;;;;;;;;;;8.37;nan;99282.97;5034947;28;20003;-83
2023/04/12 07:08:26;;;;;;;;;;;;;;;8.38;nan;99281.16;5034979;28;19975;-84
2023/04/12 07:10:52;;;;;;;;;;;;;;;8.41;nan;99288.75;5029056;28;19917;-84
2023/04/12 07:13:18;;;;;;;;;;;;;;;8.43;nan;99278.88;5031496;28;19956;-84
2023/04/12 07:15:43;;;;;;;;;;;;;;;8.43;nan;99270.97;5034157;28;20392;-84
2023/04/12 07:18:08;;;;;;;;;;;;;;;8.47;nan;99273.09;5034065;28;20124;-83
2023/04/12 07:20:33;;;;;;;;;;;;;;;8.54;nan;99262.72;5031818;28;20399;-84
2023/04/12 07:22:58;;;;;;;;;;;;;;;8.54;nan;99252.16;5029570;28;19917;-84
2023/04/12 07:25:24;;;;;;;;;;;;;;;8.62;nan;99246.03;5034291;28;19950;-84
2023/04/12 07:27:49;;;;;;;;;;;;;;;8.63;nan;99240.63;5035531;28;19917;-86
2023/04/12 07:30:14;;;;;;;;;;;;;;;8.68;nan;99238.28;5027286;28;20373;-85
2023/04/12 07:32:39;;;;;;;;;;;;;;;8.77;nan;99225.91;5031459;28;19972;-84
2023/04/12 07:35:05;;;;;;;;;;;;;;;8.76;nan;99221.59;5025801;28;19914;-82
2023/04/12 07:37:30;;;;;;;;;;;;;;;8.75;nan;99219.97;5036656;28;20378;-84
2023/04/12 07:39:55;;;;;;;;;;;;;;;8.80;nan;99219.47;5035521;28;19924;-85
2023/04/12 07:42:20;;;;;;;;;;;;;;;8.80;nan;99201.00;5034211;28;19944;-84
2023/04/12 07:44:46;;;;;;;;;;;;;;;8.82;nan;99202.47;5034993;28;19947;-84
2023/04/12 07:47:11;;;;;;;;;;;;;;;8.83;nan;99195.38;5035643;28;20114;-85
2023/04/12 07:49:36;;;;;;;;;;;;;;;8.92;nan;99191.72;5032845;28;20415;-85
2023/04/12 07:52:01;;;;;;;;;;;;;;;8.87;nan;99179.06;5034161;28;20118;-85
2023/04/12 07:54:27;;;;;;;;;;;;;;;8.90;nan;99177.88;5032770;28;20386;-85
2023/04/12 07:57:11;;;;;;;;;;;;;;;8.97;nan;99170.09;5030989;28;20131;-86
2023/04/12 07:59:36;;;;;;;;;;;;;;;9.01;nan;99172.22;5030385;28;20009;-86
2023/04/12 08:02:02;;;;;;;;;;;;;;;9.02;nan;99168.56;5026579;28;19941;-86
2023/04/12 08:04:27;;;;;;;;;;;;;;;9.07;nan;99168.88;5031630;28;20001;-84
2023/04/12 08:06:53;;;;;;;;;;;;;;;9.10;nan;99167.69;5023813;28;20024;-87
2023/04/12 08:09:18;;;;;;;;;;;;;;;9.16;nan;99156.44;5030684;28;19970;-85
2023/04/12 08:11:43;;;;;;;;;;;;;;;9.20;nan;99151.63;5019207;28;19932;-84
2023/04/12 08:14:09;;;;;;;;;;;;;;;9.26;nan;99149.09;5029022;28;19917;-85
2023/04/12 08:16:34;;;;;;;;;;;;;;;9.27;nan;99136.72;5031776;28;20441;-86
2023/04/12 08:18:59;;;;;;;;;;;;;;;9.33;nan;99149.22;5032204;28;19938;-85
2023/04/12 08:21:26;;;;;;;;;;;;;;;9.38;nan;99146.88;5023579;28;20012;-85
2023/04/12 08:23:51;;;;;;;;;;;;;;;9.49;nan;99141.19;5032751;28;19917;-84
2023/04/12 08:26:17;;;;;;;;;;;;;;;9.56;nan;99138.66;5030150;28;19982;-86
2023/04/12 08:28:42;;;;;;;;;;;;;;;9.71;nan;99141.31;5033882;28;20401;-85
2023/04/12 08:31:07;;;;;;;;;;;;;;;9.76;nan;99142.38;5024408;28;20349;-86
2023/04/12 08:33:32;;;;;;;;;;;;;;;9.75;nan;99134.66;5032124;28;20006;-86
2023/04/12 08:35:58;;;;;;;;;;;;;;;9.82;nan;99126.81;5032467;28;19937;-85
2023/04/12 08:38:23;;;;;;;;;;;;;;;9.86;nan;99133.38;5029972;28;19921;-85
2023/04/12 08:40:49;;;;;;;;;;;;;;;9.88;nan;99134.84;5030636;28;19921;-86
2023/04/12 08:43:16;;;;;;;;;;;;;;;9.93;nan;99139.59;5023339;28;19984;-84
2023/04/12 08:45:41;;;;;;;;;;;;;;;9.96;nan;99126.84;5034614;28;19924;-85
2023/04/12 08:48:07;;;;;;;;;;;;;;;10.02;nan;99125.28;5031458;28;19917;-85
2023/04/12 08:50:32;;;;;;;;;;;;;;;10.03;nan;99137.47;5026236;28;19914;-85
2023/04/12 08:52:58;;;;;;;;;;;;;;;10.00;nan;99128.09;5029289;28;19975;-83
2023/04/12 08:55:23;;;;;;;;;;;;;;;10.03;nan;99134.84;5038737;28;19921;-84
2023/04/12 08:57:50;;;;;;;;;;;;;;;10.04;nan;99125.94;5037357;28;19917;-83
2023/04/12 09:00:16;;;;;;;;;;;;;;;9.98;nan;99124.81;5043358;28;19913;-84
2023/04/12 09:02:45;;;;;;;;;;;;;;;9.97;nan;99125.84;5044806;28;20337;-84
2023/04/12 09:05:13;;;;;;;;;;;;;;;9.96;nan;99121.56;5045092;28;19917;-85
2023/04/12 09:07:38;;;;;;;;;;;;;;;9.99;nan;99120.38;5038434;28;19964;-85
2023/04/12 09:10:04;;;;;;;;;;;;;;;10.05;nan;99110.91;5033357;28;19917;-83
2023/04/12 09:12:29;;;;;;;;;;;;;;;9.99;nan;99115.91;5040089;28;19935;-85
2023/04/12 09:15:08;;;;;;;;;;;;;;;9.98;nan;99124.00;5037081;28;19925;-85
2023/04/12 09:17:37;;;;;;;;;;;;;;;10.00;nan;99119.38;5026378;28;19920;-84
2023/04/12 09:20:20;;;;;;;;;;;;;;;9.99;nan;99117.75;5026280;28;19927;-86
2023/04/12 09:22:46;;;;;;;;;;;;;;;10.00;nan;99106.97;5038140;28;19939;-84
2023/04/12 09:25:12;;;;;;;;;;;;;;;9.99;nan;99112.47;5032235;28;19913;-85
2023/04/12 09:27:49;;;;;;;;;;;;;;;10.07;nan;99103.63;5026864;28;19983;-85
2023/04/12 09:30:15;;;;;;;;;;;;;;;10.19;nan;99100.31;5031774;28;19917;-85
2023/04/12 09:32:41;;;;;;;;;;;;;;;10.25;nan;99096.13;5030799;28;20275;-83
2023/04/12 09:35:06;;;;;;;;;;;;;;;10.29;nan;99073.63;5023538;28;19976;-84
2023/04/12 09:37:31;;;;;;;;;;;;;;;10.26;nan;99071.34;5026501;28;19917;-85
2023/04/12 09:40:03;;;;;;;;;;;;;;;10.24;nan;99073.34;5030722;28;19964;-84
2023/04/12 09:42:29;;;;;;;;;;;;;;;10.29;nan;99062.25;5040209;28;20016;-86
2023/04/12 09:44:55;;;;;;;;;;;;;;;10.36;nan;99068.44;5031851;28;19955;-85
2023/04/12 09:47:20;;;;;;;;;;;;;;;10.34;nan;99063.31;5039947;28;19962;-85
2023/04/12 09:49:45;;;;;;;;;;;;;;;10.36;nan;99063.97;5030682;28;19972;-84
2023/04/12 09:52:12;;;;;;;;;;;;;;;10.46;nan;99074.22;5025744;28;19917;-84
2023/04/12 09:54:44;;;;;;;;;;;;;;;10.46;nan;99065.50;5040955;28;19928;-83
2023/04/12 09:57:10;;;;;;;;;;;;;;;10.43;nan;99057.94;5033466;28;19913;-85
2023/04/12 09:59:37;;;;;;;;;;;;;;;10.41;nan;99056.28;5036509;28;19982;-85
2023/04/12 10:02:17;;;;;;;;;;;;;;;10.40;nan;99065.22;5029223;28;20285;-86
2023/04/12 10:04:42;;;;;;;;;;;;;;;10.41;nan;99055.47;5026983;28;19921;-86
2023/04/12 10:07:10;;;;;;;;;;;;;;;10.37;nan;99048.94;5026398;28;20433;-86
2023/04/12 10:09:39;;;;;;;;;;;;;;;10.35;nan;99054.41;5025846;28;19924;-85
2023/04/12 10:12:05;;;;;;;;;;;;;;;10.33;nan;99051.13;5034989;28;19921;-85
2023/04/12 10:14:30;;;;;;;;;;;;;;;10.39;nan;99052.19;5033137;28;19924;-84
2023/04/12 10:16:56;;;;;;;;;;;;;;;10.41;nan;99040.44;5030910;28;19967;-86
2023/04/12 10:19:22;;;;;;;;;;;;;;;10.46;nan;99052.28;5024983;28;20380;-86
2023/04/12 10:21:48;;;;;;;;;;;;;;;10.49;nan;99046.63;5025484;28;20310;-84
2023/04/12 10:24:13;;;;;;;;;;;;;;;10.54;nan;99045.06;5029632;28;19920;-86
2023/04/12 10:26:40;;;;;;;;;;;;;;;10.66;nan;99034.00;5025835;28;19936;-86
2023/04/12 10:29:44;;;;;;;;;;;;;;;10.63;nan;99030.72;5022937;28;19922;-86
2023/04/12 10:32:20;;;;;;;;;;;;;;;10.66;nan;99036.63;4973181;28;20384;-86
2023/04/12 10:34:55;;;;;;;;;;;;;;;10.63;nan;99024.63;4989897;28;19918;-86
2023/04/12 10:37:20;;;;;;;;;;;;;;;10.69;nan;99023.03;5011847;28;19913;-86
2023/04/12 10:39:52;;;;;;;;;;;;;;;10.62;nan;99028.25;5024772;28;19913;-86
2023/04/12 10:42:26;;;;;;;;;;;;;;;10.59;nan;99023.34;5011518;28;19917;-85
2023/04/12 10:44:52;;;;;;;;;;;;;;;10.58;nan;99024.34;5026468;28;19956;-85
2023/04/12 10:47:57;;;;;;;;;;;;;;;10.62;nan;99022.97;5036925;28;19921;-84
2023/04/12 10:50:26;;;;;;;;;;;;;;;10.61;nan;99014.22;4968404;28;20096;-83
2023/04/12 10:53:28;;;;;;;;;;;;;;;10.65;nan;99014.66;4952109;28;19923;-84
2023/04/12 10:55:53;;;;;;;;;;;;;;;10.65;nan;99019.13;5012079;28;19913;-84
2023/04/12 10:58:37;;;;;;;;;;;;;;;10.60;nan;99023.13;5028677;28;20283;-83
2023/04/12 11:01:03;;;;;;;;;;;;;;;10.70;nan;99012.28;5031665;28;20384;-84
2023/04/12 11:03:28;;;;;;;;;;;;;;;10.75;nan;99009.88;5023118;28;19972;-83
2023/04/12 11:06:03;;;;;;;;;;;;;;;10.81;nan;99003.00;5025949;28;19982;-83
2023/04/12 11:08:29;;;;;;;;;;;;;;;10.89;nan;99007.34;5022441;28;20007;-84
2023/04/12 11:10:58;;;;;;;;;;;;;;;10.96;nan;99016.13;5030222;28;20350;-83
2023/04/12 11:13:25;;;;;;;;;;;;;;;10.99;nan;98999.91;5023528;28;19936;-82
2023/04/12 11:16:00;;;;;;;;;;;;;;;11.03;nan;98991.38;5032255;28;19959;-84
2023/04/12 11:18:25;;;;;;;;;;;;;;;11.26;nan;98999.06;5030392;28;19917;-84
2023/04/12 11:20:51;;;;;;;;;;;;;;;11.39;nan;99005.44;5027650;28;19948;-84
2023/04/12 11:23:17;;;;;;;;;;;;;;;11.35;nan;98998.94;5031012;28;20015;-85
2023/04/12 11:25:42;;;;;;;;;;;;;;;11.45;nan;99004.69;5032606;28;19921;-84
2023/04/12 11:28:08;;;;;;;;;;;;;;;11.53;nan;99003.69;5022729;28;20461;-83
2023/04/12 11:30:33;;;;;;;;;;;;;;;11.55;nan;98994.56;5026988;28;19948;-85
2023/04/12 11:32:58;;;;;;;;;;;;;;;11.63;nan;98991.75;5031690;28;19967;-83
2023/04/12 11:35:29;;;;;;;;;;;;;;;11.72;nan;99000.34;5032023;28;19917;-83
2023/04/12 11:37:56;;;;;;;;;;;;;;;11.74;nan;98984.25;5025558;28;20020;-83
2023/04/12 11:40:22;;;;;;;;;;;;;;;11.88;nan;98993.94;5012899;28;19920;-83
2023/04/12 11:42:47;;;;;;;;;;;;;;;11.98;nan;98982.97;5031413;28;19931;-84
2023/04/12 11:45:17;;;;;;;;;;;;;;;12.03;nan;98983.16;5031850;28;19917;-83
2023/04/12 11:47:43;;;;;;;;;;;;;;;12.21;nan;98988.72;5033047;28;19948;-83
2023/04/12 11:50:09;;;;;;;;;;;;;;;12.33;nan;98981.00;5032563;28;19913;-83
2023/04/12 11:52:34;;;;;;;;;;;;;;;12.39;nan;98974.88;5039149;28;19925;-83
2023/04/12 11:55:01;;;;;;;;;;;;;;;12.48;nan;98976.34;5027805;28;19928;-83
2023/04/12 11:57:27;;;;;;;;;;;;;;;12.59;nan;98961.69;5031165;28;19917;-83
2023/04/12 11:59:55;;;;;;;;;;;;;;;12.66;nan;98967.00;5025336;28;20378;-85
2023/04/12 12:02:20;;;;;;;;;;;;;;;12.69;nan;98955.97;5025738;28;19993;-84
2023/04/12 12:04:47;;;;;;;;;;;;;;;12.80;nan;98963.31;5020485;28;20354;-84
2023/04/12 12:07:13;;;;;;;;;;;;;;;12.73;nan;98965.16;5022878;28;19944;-83
2023/04/12 12:09:39;;;;;;;;;;;;;;;12.67;nan;98952.69;5013200;28;19914;-83
2023/04/12 12:12:05;;;;;;;;;;;;;;;12.66;nan;98965.16;5027601;28;19917;-84
2023/04/12 12:14:32;;;;;;;;;;;;;;;12.53;nan;98955.34;5023827;28;19921;-83
2023/04/12 12:16:58;;;;;;;;;;;;;;;12.46;nan;98959.81;5031459;28;19967;-83
2023/04/12 12:19:27;;;;;;;;;;;;;;;12.52;nan;98947.59;5033439;28;19921;-83
2023/04/12 12:21:53;;;;;;;;;;;;;;;12.65;nan;98942.28;5027419;28;19921;-84
2023/04/12 12:24:18;;;;;;;;;;;;;;;12.71;nan;98941.47;5029509;28;20456;-84
2023/04/12 12:26:44;;;;;;;;;;;;;;;12.78;nan;98943.31;5019910;28;19921;-82
2023/04/12 12:29:15;;;;;;;;;;;;;;;12.84;nan;98948.59;5031140;28;20020;-82
2023/04/12 12:31:44;;;;;;;;;;;;;;;12.85;nan;98946.78;5028178;28;19963;-84
2023/04/12 12:34:11;;;;;;;;;;;;;;;12.85;nan;98949.44;5018899;28;19944;-84
2023/04/12 12:36:37;;;;;;;;;;;;;;;12.90;nan;98941.69;5023129;28;19921;-84
2023/04/12 12:39:05;;;;;;;;;;;;;;;13.01;nan;98945.53;5031012;28;19917;-84
2023/04/12 12:41:31;;;;;;;;;;;;;;;13.18;nan;98941.44;5023456;28;19979;-83
2023/04/12 12:43:56;;;;;;;;;;;;;;;13.12;nan;98934.28;5034006;28;19921;-85
2023/04/12 12:46:21;;;;;;;;;;;;;;;13.10;nan;98939.78;5031109;28;20386;-84
2023/04/12 12:48:47;;;;;;;;;;;;;;;13.10;nan;98933.69;5017261;28;19929;-84
2023/04/12 12:51:13;;;;;;;;;;;;;;;13.02;nan;98931.25;5026588;28;19921;-83
2023/04/12 12:53:39;;;;;;;;;;;;;;;12.89;nan;98943.50;5029948;28;19917;-85
2023/04/12 12:56:04;;;;;;;;;;;;;;;;;;5031811;28;19924;-85
2023/04/12 12:58:30;;;;;;;;;;;;;;;12.32;nan;98943.09;5035398;28;19913;-84
2023/04/12 13:00:55;;;;;;;;;;;;;;;12.18;nan;98945.91;5034800;28;19921;-85
2023/04/12 13:03:20;;;;;;;;;;;;;;;12.01;nan;98948.94;5047743;28;19913;-86
2023/04/12 13:05:46;;;;;;;;;;;;;;;11.86;nan;98943.75;5036434;28;19917;-85
2023/04/12 13:08:11;;;;;;;;;;;;;;;11.79;nan;98936.81;5034583;28;19917;-85
2023/04/12 13:10:37;;;;;;;;;;;;;;;11.69;nan;98931.88;5036191;28;19917;-85
2023/04/12 13:13:02;;;;;;;;;;;;;;;11.73;nan;98929.66;5040175;28;19921;-85